Skyland, North Carolina
Current Conditions -  °F | °C
As of 9:54 AM on Saturday 22 Nov 2014 (Local Time) from KAVL Reporting Station
Clear Clear  
Wind Chill: 31°   Ceiling: Unl
Heat Index: 35°   Visibility: 10mi
Dew Point: 21°   Wind: 5mph
Humidity: 57%   Direction: 160°SSE
Pressure: 30.49"   Gusts: NA
Location:  35.49°N, 82.52°W
Report Text: KAVL 221454Z 16004KT 10SM CLR 02/M06 A3049 RMK AO2 SLP338 T00171061 58002
Loading
Personal Weather Stations






























Interactive Weather Map New forecast layout! Learn more

10-Day Weather Forecast

Advertisements
Track Severe Weather on mobile